createdAt,value
2023-03-06T00:02:37.669Z,73.45
2023-03-06T00:05:40.602Z,73.52
2023-03-06T00:08:43.161Z,73.39
2023-03-06T00:11:46.091Z,72.94
2023-03-06T00:14:48.932Z,73.23
2023-03-06T00:17:52.287Z,73.55
2023-03-06T00:20:54.922Z,73.67
2023-03-06T00:23:57.710Z,73.54
2023-03-06T00:27:00.196Z,73.22
2023-03-06T00:30:04.098Z,73.46
2023-03-06T00:33:06.938Z,74.25
2023-03-06T00:36:10.313Z,74.00
2023-03-06T00:39:13.048Z,73.78
2023-03-06T00:42:17.473Z,73.46
2023-03-06T00:45:20.139Z,73.33
2023-03-06T00:48:22.990Z,73.11
2023-03-06T00:51:27.490Z,73.42
2023-03-06T00:54:30.299Z,73.47
2023-03-06T00:57:33.094Z,72.53
2023-03-06T01:00:36.088Z,72.45
2023-03-06T01:03:38.805Z,72.31
2023-03-06T01:06:41.850Z,71.86
2023-03-06T01:09:44.489Z,70.76
2023-03-06T01:12:47.454Z,71.09
2023-03-06T01:15:50.023Z,70.75
2023-03-06T01:18:53.206Z,70.30
2023-03-06T01:21:56.310Z,69.42
2023-03-06T01:24:59.188Z,69.86
2023-03-06T01:28:01.818Z,70.19
2023-03-06T01:31:05.891Z,71.06
2023-03-06T01:34:08.516Z,71.91
2023-03-06T01:37:11.452Z,70.77
2023-03-06T01:40:14.394Z,70.83
2023-03-06T01:43:26.666Z,70.69
2023-03-06T01:46:29.163Z,70.60
2023-03-06T01:49:36.744Z,70.43
2023-03-06T01:52:49.589Z,70.62
2023-03-06T01:55:52.695Z,70.32
2023-03-06T01:58:55.467Z,69.47
2023-03-06T02:02:01.822Z,68.88
2023-03-06T02:05:08.081Z,68.15
2023-03-06T02:08:13.551Z,68.72
2023-03-06T02:11:26.236Z,68.94
2023-03-06T02:14:29.736Z,67.68
2023-03-06T02:17:34.897Z,67.86
2023-03-06T02:20:44.691Z,68.58
2023-03-06T02:24:28.814Z,68.72
2023-03-06T02:27:32.185Z,68.99
2023-03-06T02:30:36.306Z,68.94
2023-03-06T02:33:39.077Z,69.15
2023-03-06T02:37:09.519Z,69.20
2023-03-06T02:40:15.162Z,68.48
2023-03-06T02:43:24.536Z,68.48
2023-03-06T02:46:27.247Z,68.48
2023-03-06T02:49:30.053Z,68.55
2023-03-06T02:52:34.156Z,67.94
2023-03-06T02:55:38.636Z,68.04
2023-03-06T02:58:41.219Z,68.58
2023-03-06T03:01:44.128Z,68.12
2023-03-06T03:04:46.781Z,68.16
2023-03-06T03:07:50.025Z,67.89
2023-03-06T03:10:52.750Z,67.98
2023-03-06T03:13:55.820Z,68.83
2023-03-06T03:16:58.915Z,68.63
2023-03-06T03:20:04.504Z,68.21
2023-03-06T03:23:07.250Z,68.79
2023-03-06T03:26:15.699Z,69.02
2023-03-06T03:29:19.129Z,68.94
2023-03-06T03:32:23.385Z,68.31
2023-03-06T03:35:26.217Z,69.58
2023-03-06T03:38:30.102Z,70.12
2023-03-06T03:41:33.941Z,69.34
2023-03-06T03:44:38.453Z,69.99
2023-03-06T03:47:41.578Z,69.08
2023-03-06T03:50:45.503Z,69.83
2023-03-06T03:53:49.343Z,70.14
2023-03-06T03:56:52.699Z,70.63
2023-03-06T03:59:55.735Z,71.63
2023-03-06T04:02:58.751Z,71.39
2023-03-06T04:06:02.330Z,72.47
2023-03-06T04:09:05.833Z,71.54
2023-03-06T04:12:09.450Z,71.13
2023-03-06T04:15:12.451Z,73.92
2023-03-06T04:18:16.610Z,71.88
2023-03-06T04:21:19.946Z,70.41
2023-03-06T04:24:22.998Z,70.33
2023-03-06T04:27:25.672Z,71.00
2023-03-06T04:30:28.604Z,71.45
2023-03-06T04:33:31.407Z,71.77
2023-03-06T04:36:35.491Z,71.28
2023-03-06T04:39:39.081Z,72.58
2023-03-06T04:42:42.102Z,72.69
2023-03-06T04:45:44.802Z,72.77
2023-03-06T04:48:47.892Z,72.79
2023-03-06T04:51:50.477Z,75.65
2023-03-06T04:54:53.269Z,77.93
2023-03-06T04:57:56.868Z,78.29
2023-03-06T05:00:59.773Z,81.70
2023-03-06T05:04:02.449Z,80.86
2023-03-06T05:07:05.393Z,80.92
2023-03-06T05:10:12.049Z,78.44
2023-03-06T05:13:14.904Z,78.61
2023-03-06T05:16:17.657Z,77.57
2023-03-06T05:19:20.736Z,78.63
2023-03-06T05:22:23.397Z,82.26
2023-03-06T05:25:26.269Z,84.13
2023-03-06T05:28:28.947Z,84.04
2023-03-06T05:31:31.834Z,83.31
2023-03-06T05:34:34.749Z,81.77
2023-03-06T05:37:37.730Z,83.27
2023-03-06T05:40:41.803Z,83.01
2023-03-06T05:43:44.703Z,84.50
2023-03-06T05:46:50.006Z,84.27
2023-03-06T05:49:52.983Z,83.76
2023-03-06T05:52:55.550Z,85.65
2023-03-06T05:56:00.468Z,86.42
2023-03-06T05:59:03.102Z,87.38
2023-03-06T06:02:05.984Z,87.43
2023-03-06T06:05:11.328Z,89.78
2023-03-06T06:08:15.595Z,90.17
2023-03-06T06:11:18.553Z,90.59
2023-03-06T06:14:22.396Z,89.81
2023-03-06T06:17:25.279Z,92.27
2023-03-06T06:20:28.552Z,92.88
2023-03-06T06:23:31.588Z,93.83
2023-03-06T06:26:34.141Z,94.11
2023-03-06T06:29:37.156Z,93.19
2023-03-06T06:32:39.798Z,94.69
2023-03-06T06:35:42.647Z,96.06
2023-03-06T06:38:45.419Z,96.18
2023-03-06T06:42:03.001Z,97.92
2023-03-06T06:45:12.930Z,97.18
2023-03-06T06:48:17.546Z,97.62
2023-03-06T06:51:22.553Z,98.41
2023-03-06T06:54:25.866Z,99.09
2023-03-06T06:57:28.538Z,96.68
2023-03-06T07:00:31.631Z,96.75
2023-03-06T07:03:34.826Z,97.13
2023-03-06T07:06:38.269Z,96.75
2023-03-06T07:09:40.951Z,94.61
2023-03-06T07:12:44.366Z,94.65
2023-03-06T07:15:47.098Z,94.87
2023-03-06T07:18:50.286Z,95.04
2023-03-06T07:21:52.969Z,93.90
2023-03-06T07:24:55.824Z,94.36
2023-03-06T07:27:59.608Z,94.48
2023-03-06T07:31:11.629Z,95.79
2023-03-06T07:34:15.441Z,96.74
2023-03-06T07:37:18.370Z,97.08
2023-03-06T07:40:21.795Z,97.40
2023-03-06T07:43:24.677Z,96.62
2023-03-06T07:46:28.866Z,97.27
2023-03-06T07:49:32.062Z,97.31
2023-03-06T07:52:34.780Z,97.27
2023-03-06T07:55:41.438Z,97.59
2023-03-06T07:58:46.098Z,97.18
2023-03-06T08:01:48.977Z,97.35
2023-03-06T08:04:53.750Z,97.21
2023-03-06T08:07:56.362Z,98.21
2023-03-06T08:10:59.198Z,98.91
2023-03-06T08:14:01.819Z,100.00
2023-03-06T08:17:04.893Z,100.00
2023-03-06T08:20:08.267Z,98.84
2023-03-06T08:23:11.965Z,99.81
2023-03-06T08:26:26.628Z,99.07
2023-03-06T08:29:31.485Z,97.58
2023-03-06T08:32:36.877Z,97.87
2023-03-06T08:35:39.825Z,94.47
2023-03-06T08:38:42.504Z,94.90
2023-03-06T08:41:45.469Z,93.46
2023-03-06T08:44:48.060Z,90.53
2023-03-06T08:47:50.938Z,89.00
2023-03-06T08:50:56.086Z,89.21
2023-03-06T08:53:59.423Z,91.93
2023-03-06T08:57:02.514Z,90.35
2023-03-06T09:00:10.879Z,89.97
2023-03-06T09:03:13.501Z,88.50
2023-03-06T09:06:17.960Z,87.73
2023-03-06T09:09:20.642Z,87.00
2023-03-06T09:12:24.009Z,84.99
2023-03-06T09:15:26.766Z,84.35
2023-03-06T09:18:29.993Z,80.52
2023-03-06T09:21:32.678Z,81.11
2023-03-06T09:24:35.535Z,79.91
2023-03-06T09:27:38.123Z,79.72
2023-03-06T09:30:42.002Z,76.74
2023-03-06T09:33:45.011Z,75.06
2023-03-06T09:36:56.891Z,74.84
2023-03-06T09:40:00.172Z,76.16
2023-03-06T09:43:03.118Z,73.03
2023-03-06T09:46:42.531Z,68.72
2023-03-06T09:50:13.406Z,69.88
2023-03-06T09:53:36.666Z,73.11
2023-03-06T09:56:50.650Z,70.79
2023-03-06T10:00:01.434Z,70.26
2023-03-06T10:03:38.169Z,70.51
2023-03-06T10:06:50.391Z,69.22
2023-03-06T10:10:13.160Z,69.66
2023-03-06T10:13:46.388Z,68.74
2023-03-06T10:16:49.383Z,69.30
2023-03-06T10:19:53.942Z,69.76
2023-03-06T10:23:01.340Z,70.02
2023-03-06T10:26:30.209Z,69.99
2023-03-06T10:30:02.067Z,67.73
2023-03-06T10:33:13.386Z,67.32
2023-03-06T10:36:17.001Z,67.73
2023-03-06T10:39:22.248Z,68.50
2023-03-06T10:42:25.051Z,70.70
2023-03-06T10:45:35.202Z,70.82
2023-03-06T10:48:49.150Z,73.38
2023-03-06T10:52:01.168Z,73.26
2023-03-06T10:55:25.721Z,73.83
2023-03-06T10:58:32.915Z,74.80
2023-03-06T11:01:35.996Z,74.44
2023-03-06T11:04:41.707Z,75.05
2023-03-06T11:08:01.703Z,75.53
2023-03-06T11:11:14.493Z,74.39
2023-03-06T11:14:22.899Z,73.62
2023-03-06T11:17:32.077Z,73.43
2023-03-06T11:20:51.092Z,73.43
2023-03-06T11:23:58.482Z,72.13
2023-03-06T11:27:14.922Z,71.17
2023-03-06T11:30:22.412Z,70.98
2023-03-06T11:33:40.663Z,70.79
2023-03-06T11:36:54.791Z,69.80
2023-03-06T11:40:23.712Z,70.36
2023-03-06T11:43:51.985Z,68.75
2023-03-06T11:47:16.640Z,68.43
2023-03-06T11:50:28.517Z,70.74
2023-03-06T11:53:38.027Z,70.82
2023-03-06T11:57:01.864Z,71.95
2023-03-06T12:00:29.455Z,71.75
2023-03-06T12:03:35.654Z,70.95
2023-03-06T12:07:03.282Z,70.66
2023-03-06T12:10:18.968Z,71.73
2023-03-06T12:13:37.606Z,73.04
2023-03-06T12:16:46.588Z,72.46
2023-03-06T12:20:20.314Z,70.87
2023-03-06T12:23:47.489Z,71.28
2023-03-06T12:26:56.836Z,71.18
2023-03-06T12:30:19.338Z,70.26
2023-03-06T12:33:25.023Z,71.24
2023-03-06T12:37:05.195Z,74.85
2023-03-06T12:40:30.624Z,77.04
2023-03-06T12:43:45.510Z,77.68
2023-03-06T12:46:54.720Z,78.57
2023-03-06T12:50:26.731Z,78.40
2023-03-06T12:53:32.052Z,78.39
2023-03-06T12:56:35.581Z,80.42
2023-03-06T12:59:50.063Z,80.67
2023-03-06T13:03:19.003Z,80.30
2023-03-06T13:06:39.151Z,79.86
2023-03-06T13:10:06.662Z,80.44
2023-03-06T13:13:32.597Z,82.03
2023-03-06T13:16:41.900Z,82.54
2023-03-06T13:19:45.014Z,83.62
2023-03-06T13:22:48.239Z,83.92
2023-03-06T13:25:50.905Z,83.96
2023-03-06T13:28:57.793Z,84.09
2023-03-06T13:32:00.556Z,84.02
2023-03-06T13:35:32.327Z,84.32
2023-03-06T13:38:39.649Z,85.21
2023-03-06T13:41:58.257Z,85.06
2023-03-06T13:45:23.759Z,84.30
2023-03-06T13:48:47.653Z,84.22
2023-03-06T13:51:53.377Z,84.44
2023-03-06T13:55:24.788Z,85.57
2023-03-06T13:58:36.273Z,84.64
2023-03-06T14:01:42.592Z,84.12
2023-03-06T14:04:59.941Z,84.47
2023-03-06T14:08:13.925Z,83.04
2023-03-06T14:11:21.736Z,82.99
2023-03-06T14:14:34.699Z,84.73
2023-03-06T14:17:39.230Z,84.67
2023-03-06T14:20:44.839Z,85.01
2023-03-06T14:24:00.384Z,85.46
2023-03-06T14:27:03.667Z,83.92
2023-03-06T14:30:11.585Z,85.07
2023-03-06T14:33:32.271Z,85.58
2023-03-06T14:36:47.895Z,87.35
2023-03-06T14:39:51.380Z,89.75
2023-03-06T14:43:20.123Z,90.28
2023-03-06T14:46:23.312Z,90.08
2023-03-06T14:49:26.999Z,90.89
2023-03-06T14:52:29.912Z,91.87
2023-03-06T14:55:35.611Z,92.45
2023-03-06T14:58:59.448Z,92.23
2023-03-06T15:02:11.091Z,92.10
2023-03-06T15:05:26.137Z,91.39
2023-03-06T15:08:36.400Z,90.37
2023-03-06T15:11:57.861Z,91.03
2023-03-06T15:15:03.729Z,90.81
2023-03-06T15:18:28.767Z,91.31
2023-03-06T15:21:37.114Z,90.94
2023-03-06T15:24:39.734Z,91.58
2023-03-06T15:27:52.057Z,92.83
2023-03-06T15:31:21.231Z,94.10
2023-03-06T15:34:24.074Z,94.25
2023-03-06T15:37:28.756Z,94.36
2023-03-06T15:40:31.986Z,94.54
2023-03-06T15:43:39.558Z,95.00
2023-03-06T15:46:42.396Z,94.54
2023-03-06T15:49:45.235Z,95.72
2023-03-06T15:52:49.051Z,96.19
2023-03-06T15:55:52.069Z,96.10
2023-03-06T15:58:56.338Z,96.60
2023-03-06T16:02:15.238Z,96.79
2023-03-06T16:05:18.495Z,96.93
2023-03-06T16:08:21.029Z,97.69
2023-03-06T16:11:32.510Z,97.66
2023-03-06T16:14:38.524Z,98.03
2023-03-06T16:17:41.387Z,99.04
2023-03-06T16:20:44.273Z,98.89
2023-03-06T16:23:47.176Z,99.50
2023-03-06T16:26:51.582Z,99.82
2023-03-06T16:29:54.403Z,100.00
2023-03-06T16:32:57.933Z,100.00
2023-03-06T16:36:00.825Z,100.00
2023-03-06T16:39:04.539Z,100.00
2023-03-06T16:42:07.544Z,100.00
2023-03-06T16:45:10.785Z,100.00
2023-03-06T16:48:16.256Z,100.00
2023-03-06T16:51:21.552Z,100.00
2023-03-06T16:54:26.182Z,100.00
2023-03-06T16:57:35.529Z,100.00
2023-03-06T17:00:38.769Z,100.00
2023-03-06T17:03:41.827Z,100.00
2023-03-06T17:06:44.649Z,100.00
2023-03-06T17:09:47.139Z,100.00
2023-03-06T17:12:50.172Z,100.00
2023-03-06T17:15:56.875Z,100.00
2023-03-06T17:19:00.960Z,100.00
2023-03-06T17:22:03.715Z,100.00
2023-03-06T17:25:07.903Z,100.00
2023-03-06T17:28:10.900Z,100.00
2023-03-06T17:31:26.692Z,100.00
2023-03-06T17:34:29.985Z,100.00
2023-03-06T17:37:32.949Z,100.00
2023-03-06T17:40:35.740Z,100.00
2023-03-06T17:43:39.446Z,100.00
2023-03-06T17:46:43.147Z,100.00
2023-03-06T17:49:46.347Z,100.00
2023-03-06T17:52:49.060Z,100.00
2023-03-06T17:55:51.929Z,100.00
2023-03-06T17:58:55.411Z,100.00
2023-03-06T18:01:59.253Z,100.00
2023-03-06T18:05:02.560Z,100.00
2023-03-06T18:08:05.965Z,100.00
2023-03-06T18:11:10.961Z,100.00
2023-03-06T18:14:14.200Z,100.00
2023-03-06T18:17:17.044Z,100.00
2023-03-06T18:20:19.894Z,100.00
2023-03-06T18:23:23.486Z,100.00
2023-03-06T18:26:30.122Z,100.00
2023-03-06T18:29:33.007Z,100.00
2023-03-06T18:32:35.755Z,100.00
2023-03-06T18:35:38.680Z,100.00
2023-03-06T18:38:43.967Z,100.00
2023-03-06T18:41:47.366Z,100.00
2023-03-06T18:44:49.926Z,100.00
2023-03-06T18:47:52.735Z,100.00
2023-03-06T18:50:55.402Z,100.00
2023-03-06T18:53:59.994Z,100.00
2023-03-06T18:57:02.569Z,100.00
2023-03-06T19:00:07.399Z,100.00
2023-03-06T19:03:11.118Z,100.00
2023-03-06T19:06:16.966Z,100.00
2023-03-06T19:09:19.769Z,100.00
2023-03-06T19:12:23.467Z,100.00
2023-03-06T19:15:26.073Z,100.00
2023-03-06T19:18:29.693Z,100.00
2023-03-06T19:21:32.328Z,100.00
2023-03-06T19:24:35.310Z,100.00
2023-03-06T19:27:39.206Z,100.00
2023-03-06T19:30:42.048Z,100.00
2023-03-06T19:33:45.189Z,100.00
2023-03-06T19:36:50.636Z,100.00
2023-03-06T19:39:53.245Z,100.00
2023-03-06T19:42:56.287Z,100.00
2023-03-06T19:46:00.650Z,100.00
2023-03-06T19:49:11.625Z,100.00
2023-03-06T19:52:14.491Z,100.00
2023-03-06T19:55:17.402Z,100.00
2023-03-06T19:58:19.945Z,100.00
2023-03-06T20:01:25.656Z,100.00
2023-03-06T20:04:33.120Z,100.00
2023-03-06T20:07:35.790Z,100.00
2023-03-06T20:10:38.635Z,100.00
2023-03-06T20:13:47.207Z,100.00
2023-03-06T20:16:50.648Z,100.00
2023-03-06T20:19:53.461Z,100.00
2023-03-06T20:22:56.397Z,100.00
2023-03-06T20:26:09.404Z,100.00
2023-03-06T20:29:12.626Z,100.00
2023-03-06T20:32:15.295Z,100.00
2023-03-06T20:35:18.170Z,100.00
2023-03-06T20:38:21.160Z,100.00
2023-03-06T20:41:26.995Z,100.00
2023-03-06T20:44:30.023Z,100.00
2023-03-06T20:47:32.834Z,100.00
2023-03-06T20:50:35.640Z,100.00
2023-03-06T20:53:38.501Z,100.00
2023-03-06T20:56:42.929Z,100.00
2023-03-06T20:59:46.025Z,100.00
2023-03-06T21:02:48.674Z,100.00
2023-03-06T21:05:51.473Z,100.00
2023-03-06T21:08:54.988Z,100.00
2023-03-06T21:11:58.080Z,100.00
2023-03-06T21:15:00.666Z,100.00
2023-03-06T21:18:03.546Z,100.00
2023-03-06T21:21:24.155Z,100.00
2023-03-06T21:24:27.001Z,100.00
2023-03-06T21:27:29.662Z,100.00
2023-03-06T21:30:34.357Z,100.00
2023-03-06T21:33:37.951Z,100.00
2023-03-06T21:36:40.919Z,100.00
2023-03-06T21:39:43.980Z,100.00
2023-03-06T21:42:46.936Z,100.00
2023-03-06T21:45:52.656Z,100.00
2023-03-06T21:48:56.439Z,100.00
2023-03-06T21:51:58.966Z,100.00
2023-03-06T21:55:01.838Z,100.00
2023-03-06T21:58:04.416Z,100.00
2023-03-06T22:01:16.933Z,100.00
2023-03-06T22:04:19.918Z,100.00
2023-03-06T22:07:22.995Z,100.00
2023-03-06T22:10:25.911Z,100.00
2023-03-06T22:13:28.747Z,100.00
2023-03-06T22:16:32.194Z,100.00
2023-03-06T22:19:34.896Z,100.00
2023-03-06T22:22:37.673Z,100.00
2023-03-06T22:25:40.553Z,100.00
2023-03-06T22:28:43.543Z,100.00
2023-03-06T22:31:46.440Z,100.00
2023-03-06T22:34:50.067Z,100.00
2023-03-06T22:37:52.559Z,100.00
2023-03-06T22:40:58.640Z,100.00
2023-03-06T22:44:03.022Z,100.00
2023-03-06T22:47:06.400Z,100.00
2023-03-06T22:50:09.789Z,100.00
2023-03-06T22:53:12.765Z,100.00
2023-03-06T22:56:20.995Z,100.00
2023-03-06T22:59:23.892Z,100.00
2023-03-06T23:02:32.422Z,100.00
2023-03-06T23:05:40.549Z,100.00
2023-03-06T23:08:44.304Z,100.00
2023-03-06T23:11:48.018Z,100.00
2023-03-06T23:15:09.404Z,100.00
2023-03-06T23:18:30.836Z,100.00
2023-03-06T23:21:51.881Z,100.00
2023-03-06T23:25:12.844Z,100.00
2023-03-06T23:28:15.722Z,100.00
2023-03-06T23:31:22.548Z,100.00
2023-03-06T23:34:25.576Z,100.00
2023-03-06T23:37:28.172Z,100.00
2023-03-06T23:40:31.422Z,100.00
2023-03-06T23:43:34.491Z,100.00
2023-03-06T23:46:37.463Z,100.00
2023-03-06T23:49:40.102Z,100.00
2023-03-06T23:52:43.480Z,100.00
2023-03-06T23:55:48.422Z,100.00
2023-03-06T23:58:51.292Z,100.00
